Airfield :
LOGIN :

Register | Disclaimer

   EN    FR    IT 

 










Legend :    VFR   Marginal VFR   IFR   Intensive IFR   Very Intensive IFR
Visi :
Ceiling :
>= 8 km
>= 3000ft
5 to 8 km
1000 to 3000 ft
1500m to 5 km
500 to 1000 ft
800 to 1500m
200 to 500 ft
< 800m
< 200 ft
Symbols :   Thunderstorms  Fog  Heavy snow  Heavy precipitations  Wind > 20 kt
SIGMETs :     Misc.  Thunderstorms  Icing  Turbulence  Mountain Waves  Volcanic Ashes






- Airport Elevation : 74 ft
- IATA code : EIN


EHEH - Eindhoven

CURRENT METAR :
  • 291455Z AUTO 06009KT 030V110 9999 SCT370 23/04 Q1025 BLU 05008KT CAVOK

EXPIRED METARs :
  • 291425Z AUTO 04010KT 290V070 9999 SCT370 23/04 Q1025 BLU 05008KT CAVOK
  • 291355Z AUTO 06009KT 340V120 9999 BKN330 22/04 Q1026 BLU 05008KT CAVOK
  • 291325Z AUTO 02006KT 310V100 9999 SCT360 23/05 Q1026 BLU 05008KT CAVOK
  • 291255Z AUTO VRB06KT 9999 OVC310 22/04 Q1026 BLU 05008KT CAVOK
  • 291225Z AUTO 05009KT 350V120 9999 BKN330 21/04 Q1027 BLU 05008KT CAVOK
  • 291155Z AUTO 06007KT 360V150 9999 NCD 21/05 Q1027 BLU 05008KT CAVOK

TAF TAF EHEH
Valid from the 29 at 12:00 until the 30 at 18:00 UTC


291120Z 2912/3018 06006KT CAVOK
PROB30
TEMPO 3011/3017 07008G18KT



MET'MAP, your aeronautical weather chart ! - Copyright ORBIFLY December 2007 - Disclaimer

ORBIFLY MET'MAP TEAM :

Programming & Development : Alexandra Zaïnal
Concept & original design : Baudouin d'Aumeries
Assistance for programming : Marc-Olivier Méhu
Technical & hardware support : Manuel Goepfert

Contact : metmap@orbifly.com




SOURCES & CREDITS :

   NOAA